sensor_id;sensor_type;location;lat;lon;timestamp;temperature;humidity
71563;DHT22;59391;52.504;13.438;2023-08-06T00:02:23;20.70;66.50
71563;DHT22;59391;52.504;13.438;2023-08-06T00:04:49;20.70;66.50
71563;DHT22;59391;52.504;13.438;2023-08-06T00:07:14;20.70;66.50
71563;DHT22;59391;52.504;13.438;2023-08-06T00:09:40;20.70;66.40
71563;DHT22;59391;52.504;13.438;2023-08-06T00:12:06;20.70;66.40
71563;DHT22;59391;52.504;13.438;2023-08-06T00:14:32;20.70;66.30
71563;DHT22;59391;52.504;13.438;2023-08-06T00:16:57;20.70;66.30
71563;DHT22;59391;52.504;13.438;2023-08-06T00:19:23;20.70;66.20
71563;DHT22;59391;52.504;13.438;2023-08-06T00:21:48;20.70;66.20
71563;DHT22;59391;52.504;13.438;2023-08-06T00:24:14;20.70;66.20
71563;DHT22;59391;52.504;13.438;2023-08-06T00:26:40;20.70;66.10
71563;DHT22;59391;52.504;13.438;2023-08-06T00:29:05;20.70;66.00
71563;DHT22;59391;52.504;13.438;2023-08-06T00:31:31;20.70;65.90
71563;DHT22;59391;52.504;13.438;2023-08-06T00:33:57;20.70;66.00
71563;DHT22;59391;52.504;13.438;2023-08-06T00:36:22;20.70;66.10
71563;DHT22;59391;52.504;13.438;2023-08-06T00:38:48;20.70;66.20
71563;DHT22;59391;52.504;13.438;2023-08-06T00:41:14;20.60;66.20
71563;DHT22;59391;52.504;13.438;2023-08-06T00:43:39;20.60;66.20
71563;DHT22;59391;52.504;13.438;2023-08-06T00:46:05;20.60;66.20
71563;DHT22;59391;52.504;13.438;2023-08-06T00:48:31;20.60;66.30
71563;DHT22;59391;52.504;13.438;2023-08-06T00:50:57;20.50;66.40
71563;DHT22;59391;52.504;13.438;2023-08-06T00:53:23;20.50;66.50
71563;DHT22;59391;52.504;13.438;2023-08-06T00:55:50;20.50;66.70
71563;DHT22;59391;52.504;13.438;2023-08-06T00:58:16;20.40;66.80
71563;DHT22;59391;52.504;13.438;2023-08-06T01:00:42;20.40;66.90
71563;DHT22;59391;52.504;13.438;2023-08-06T01:03:08;20.40;67.20
71563;DHT22;59391;52.504;13.438;2023-08-06T01:05:34;20.40;67.20
71563;DHT22;59391;52.504;13.438;2023-08-06T01:11:11;20.30;67.40
71563;DHT22;59391;52.504;13.438;2023-08-06T01:13:49;20.30;67.60
71563;DHT22;59391;52.504;13.438;2023-08-06T01:16:21;20.20;67.90
71563;DHT22;59391;52.504;13.438;2023-08-06T01:18:48;20.20;67.90
71563;DHT22;59391;52.504;13.438;2023-08-06T01:21:15;20.20;68.00
71563;DHT22;59391;52.504;13.438;2023-08-06T01:23:42;20.20;68.10
71563;DHT22;59391;52.504;13.438;2023-08-06T01:26:14;20.10;68.20
71563;DHT22;59391;52.504;13.438;2023-08-06T01:28:59;20.10;68.30
71563;DHT22;59391;52.504;13.438;2023-08-06T01:31:38;20.10;68.40
71563;DHT22;59391;52.504;13.438;2023-08-06T01:34:10;20.10;68.40
71563;DHT22;59391;52.504;13.438;2023-08-06T01:36:42;20.00;68.50
71563;DHT22;59391;52.504;13.438;2023-08-06T01:39:08;20.00;68.60
71563;DHT22;59391;52.504;13.438;2023-08-06T01:41:33;20.00;68.60
71563;DHT22;59391;52.504;13.438;2023-08-06T01:43:59;20.00;68.70
71563;DHT22;59391;52.504;13.438;2023-08-06T01:46:25;20.00;68.90
71563;DHT22;59391;52.504;13.438;2023-08-06T01:48:50;20.00;69.00
71563;DHT22;59391;52.504;13.438;2023-08-06T01:51:16;19.90;69.40
71563;DHT22;59391;52.504;13.438;2023-08-06T01:53:41;19.90;69.30
71563;DHT22;59391;52.504;13.438;2023-08-06T01:56:07;19.90;69.40
71563;DHT22;59391;52.504;13.438;2023-08-06T01:58:33;19.90;69.60
71563;DHT22;59391;52.504;13.438;2023-08-06T02:00:58;19.90;69.60
71563;DHT22;59391;52.504;13.438;2023-08-06T02:03:24;19.80;69.80
71563;DHT22;59391;52.504;13.438;2023-08-06T02:05:50;19.80;69.90
71563;DHT22;59391;52.504;13.438;2023-08-06T02:08:15;19.80;70.30
71563;DHT22;59391;52.504;13.438;2023-08-06T02:10:41;19.80;70.50
71563;DHT22;59391;52.504;13.438;2023-08-06T02:13:07;19.80;70.60
71563;DHT22;59391;52.504;13.438;2023-08-06T02:15:32;19.80;70.90
71563;DHT22;59391;52.504;13.438;2023-08-06T02:17:58;19.70;71.00
71563;DHT22;59391;52.504;13.438;2023-08-06T02:20:23;19.70;71.30
71563;DHT22;59391;52.504;13.438;2023-08-06T02:22:49;19.70;71.60
71563;DHT22;59391;52.504;13.438;2023-08-06T02:25:15;19.70;71.90
71563;DHT22;59391;52.504;13.438;2023-08-06T02:27:40;19.70;71.90
71563;DHT22;59391;52.504;13.438;2023-08-06T02:30:06;19.70;71.80
71563;DHT22;59391;52.504;13.438;2023-08-06T02:32:32;19.70;72.10
71563;DHT22;59391;52.504;13.438;2023-08-06T02:35:01;19.70;71.90
71563;DHT22;59391;52.504;13.438;2023-08-06T02:37:27;19.60;71.70
71563;DHT22;59391;52.504;13.438;2023-08-06T02:39:53;19.70;71.70
71563;DHT22;59391;52.504;13.438;2023-08-06T02:42:18;19.60;71.60
71563;DHT22;59391;52.504;13.438;2023-08-06T02:44:44;19.60;71.20
71563;DHT22;59391;52.504;13.438;2023-08-06T02:47:09;19.60;71.10
71563;DHT22;59391;52.504;13.438;2023-08-06T02:49:35;19.60;71.00
71563;DHT22;59391;52.504;13.438;2023-08-06T02:52:01;19.60;71.10
71563;DHT22;59391;52.504;13.438;2023-08-06T02:54:26;19.50;70.90
71563;DHT22;59391;52.504;13.438;2023-08-06T02:56:52;19.50;71.20
71563;DHT22;59391;52.504;13.438;2023-08-06T02:59:17;19.40;71.20
71563;DHT22;59391;52.504;13.438;2023-08-06T03:01:43;19.50;71.20
71563;DHT22;59391;52.504;13.438;2023-08-06T03:04:09;19.40;71.30
71563;DHT22;59391;52.504;13.438;2023-08-06T03:06:34;19.40;71.30
71563;DHT22;59391;52.504;13.438;2023-08-06T03:09:00;19.30;71.40
71563;DHT22;59391;52.504;13.438;2023-08-06T03:11:25;19.30;71.70
71563;DHT22;59391;52.504;13.438;2023-08-06T03:13:51;19.30;71.90
71563;DHT22;59391;52.504;13.438;2023-08-06T03:16:17;19.20;72.20
71563;DHT22;59391;52.504;13.438;2023-08-06T03:18:42;19.20;72.30
71563;DHT22;59391;52.504;13.438;2023-08-06T03:21:08;19.20;72.40
71563;DHT22;59391;52.504;13.438;2023-08-06T03:23:33;19.10;72.60
71563;DHT22;59391;52.504;13.438;2023-08-06T03:26:03;19.10;72.80
71563;DHT22;59391;52.504;13.438;2023-08-06T03:28:29;19.10;73.10
71563;DHT22;59391;52.504;13.438;2023-08-06T03:31:02;19.10;73.40
71563;DHT22;59391;52.504;13.438;2023-08-06T03:33:29;19.10;73.50
71563;DHT22;59391;52.504;13.438;2023-08-06T03:35:54;19.00;73.30
71563;DHT22;59391;52.504;13.438;2023-08-06T03:38:20;19.00;73.50
71563;DHT22;59391;52.504;13.438;2023-08-06T03:40:46;19.00;73.60
71563;DHT22;59391;52.504;13.438;2023-08-06T03:43:12;19.00;73.70
71563;DHT22;59391;52.504;13.438;2023-08-06T03:45:38;19.00;73.80
71563;DHT22;59391;52.504;13.438;2023-08-06T03:48:04;19.00;73.90
71563;DHT22;59391;52.504;13.438;2023-08-06T03:50:29;18.90;74.10
71563;DHT22;59391;52.504;13.438;2023-08-06T03:52:55;18.90;74.10
71563;DHT22;59391;52.504;13.438;2023-08-06T03:55:21;18.90;74.00
71563;DHT22;59391;52.504;13.438;2023-08-06T03:57:47;18.90;74.00
71563;DHT22;59391;52.504;13.438;2023-08-06T04:00:13;18.90;74.10
71563;DHT22;59391;52.504;13.438;2023-08-06T04:02:38;18.90;74.20
71563;DHT22;59391;52.504;13.438;2023-08-06T04:05:04;18.90;74.60
71563;DHT22;59391;52.504;13.438;2023-08-06T04:07:30;18.80;74.70
71563;DHT22;59391;52.504;13.438;2023-08-06T04:10:01;18.80;74.80
71563;DHT22;59391;52.504;13.438;2023-08-06T04:12:28;18.80;75.00
71563;DHT22;59391;52.504;13.438;2023-08-06T04:14:55;18.80;75.00
71563;DHT22;59391;52.504;13.438;2023-08-06T04:17:22;18.80;75.30
71563;DHT22;59391;52.504;13.438;2023-08-06T04:19:53;18.80;75.20
71563;DHT22;59391;52.504;13.438;2023-08-06T04:22:20;18.80;75.50
71563;DHT22;59391;52.504;13.438;2023-08-06T04:24:47;18.80;75.50
71563;DHT22;59391;52.504;13.438;2023-08-06T04:27:14;18.80;75.40
71563;DHT22;59391;52.504;13.438;2023-08-06T04:29:40;18.80;75.70
71563;DHT22;59391;52.504;13.438;2023-08-06T04:32:08;18.80;75.60
71563;DHT22;59391;52.504;13.438;2023-08-06T04:34:35;18.90;75.70
71563;DHT22;59391;52.504;13.438;2023-08-06T04:37:02;18.90;75.80
71563;DHT22;59391;52.504;13.438;2023-08-06T04:39:28;18.90;75.70
71563;DHT22;59391;52.504;13.438;2023-08-06T04:41:55;18.90;75.00
71563;DHT22;59391;52.504;13.438;2023-08-06T04:44:22;18.90;74.80
71563;DHT22;59391;52.504;13.438;2023-08-06T04:46:48;18.90;74.70
71563;DHT22;59391;52.504;13.438;2023-08-06T04:49:17;18.90;74.70
71563;DHT22;59391;52.504;13.438;2023-08-06T04:51:43;18.90;74.60
71563;DHT22;59391;52.504;13.438;2023-08-06T04:54:09;18.80;74.90
71563;DHT22;59391;52.504;13.438;2023-08-06T04:56:35;18.80;75.30
71563;DHT22;59391;52.504;13.438;2023-08-06T04:59:00;18.80;75.00
71563;DHT22;59391;52.504;13.438;2023-08-06T05:01:26;18.80;75.20
71563;DHT22;59391;52.504;13.438;2023-08-06T05:03:52;18.80;75.30
71563;DHT22;59391;52.504;13.438;2023-08-06T05:06:17;18.80;75.40
71563;DHT22;59391;52.504;13.438;2023-08-06T05:08:43;18.80;75.20
71563;DHT22;59391;52.504;13.438;2023-08-06T05:11:09;18.90;75.40
71563;DHT22;59391;52.504;13.438;2023-08-06T05:13:35;18.80;75.30
71563;DHT22;59391;52.504;13.438;2023-08-06T05:16:00;18.90;75.20
71563;DHT22;59391;52.504;13.438;2023-08-06T05:18:27;18.90;75.40
71563;DHT22;59391;52.504;13.438;2023-08-06T05:20:53;18.90;75.00
71563;DHT22;59391;52.504;13.438;2023-08-06T05:23:19;18.90;74.70
71563;DHT22;59391;52.504;13.438;2023-08-06T05:25:44;18.90;74.50
71563;DHT22;59391;52.504;13.438;2023-08-06T05:28:10;18.90;74.30
71563;DHT22;59391;52.504;13.438;2023-08-06T05:30:39;18.90;74.40
71563;DHT22;59391;52.504;13.438;2023-08-06T05:33:06;19.00;74.60
71563;DHT22;59391;52.504;13.438;2023-08-06T05:35:31;18.90;74.80
71563;DHT22;59391;52.504;13.438;2023-08-06T05:37:57;19.00;74.80
71563;DHT22;59391;52.504;13.438;2023-08-06T05:40:22;19.00;74.90
71563;DHT22;59391;52.504;13.438;2023-08-06T05:42:52;19.00;75.10
71563;DHT22;59391;52.504;13.438;2023-08-06T05:45:19;19.00;75.20
71563;DHT22;59391;52.504;13.438;2023-08-06T05:47:44;19.00;75.20
71563;DHT22;59391;52.504;13.438;2023-08-06T05:50:10;19.10;75.20
71563;DHT22;59391;52.504;13.438;2023-08-06T05:52:36;19.10;75.10
71563;DHT22;59391;52.504;13.438;2023-08-06T05:55:02;19.10;74.90
71563;DHT22;59391;52.504;13.438;2023-08-06T05:57:28;19.20;74.80
71563;DHT22;59391;52.504;13.438;2023-08-06T05:59:53;19.20;74.80
71563;DHT22;59391;52.504;13.438;2023-08-06T06:02:19;19.20;74.80
71563;DHT22;59391;52.504;13.438;2023-08-06T06:04:47;19.30;74.70
71563;DHT22;59391;52.504;13.438;2023-08-06T06:07:13;19.30;74.60
71563;DHT22;59391;52.504;13.438;2023-08-06T06:09:39;19.30;74.40
71563;DHT22;59391;52.504;13.438;2023-08-06T06:12:05;19.30;74.30
71563;DHT22;59391;52.504;13.438;2023-08-06T06:14:31;19.30;74.20
71563;DHT22;59391;52.504;13.438;2023-08-06T06:16:58;19.30;74.50
71563;DHT22;59391;52.504;13.438;2023-08-06T06:19:25;19.40;74.50
71563;DHT22;59391;52.504;13.438;2023-08-06T06:21:50;19.40;74.30
71563;DHT22;59391;52.504;13.438;2023-08-06T06:24:16;19.40;74.10
71563;DHT22;59391;52.504;13.438;2023-08-06T06:26:42;19.50;73.60
71563;DHT22;59391;52.504;13.438;2023-08-06T06:29:07;19.50;73.60
71563;DHT22;59391;52.504;13.438;2023-08-06T06:31:33;19.50;73.70
71563;DHT22;59391;52.504;13.438;2023-08-06T06:33:58;19.50;73.70
71563;DHT22;59391;52.504;13.438;2023-08-06T06:36:24;19.50;73.70
71563;DHT22;59391;52.504;13.438;2023-08-06T06:38:50;19.60;73.90
71563;DHT22;59391;52.504;13.438;2023-08-06T06:41:16;19.60;73.60
71563;DHT22;59391;52.504;13.438;2023-08-06T06:43:42;19.60;73.40
71563;DHT22;59391;52.504;13.438;2023-08-06T06:46:07;19.60;73.10
71563;DHT22;59391;52.504;13.438;2023-08-06T06:48:33;19.60;73.00
71563;DHT22;59391;52.504;13.438;2023-08-06T06:50:59;19.70;73.20
71563;DHT22;59391;52.504;13.438;2023-08-06T06:53:27;19.60;73.30
71563;DHT22;59391;52.504;13.438;2023-08-06T06:56:03;19.70;73.20
71563;DHT22;59391;52.504;13.438;2023-08-06T06:58:30;19.70;73.60
71563;DHT22;59391;52.504;13.438;2023-08-06T07:00:56;19.70;73.30
71563;DHT22;59391;52.504;13.438;2023-08-06T07:03:24;19.80;73.30
71563;DHT22;59391;52.504;13.438;2023-08-06T07:05:50;19.80;73.00
71563;DHT22;59391;52.504;13.438;2023-08-06T07:08:15;19.80;73.00
71563;DHT22;59391;52.504;13.438;2023-08-06T07:10:42;19.90;73.00
71563;DHT22;59391;52.504;13.438;2023-08-06T07:13:08;19.90;73.00
71563;DHT22;59391;52.504;13.438;2023-08-06T07:15:34;19.90;72.90
71563;DHT22;59391;52.504;13.438;2023-08-06T07:18:00;19.90;72.60
71563;DHT22;59391;52.504;13.438;2023-08-06T07:20:26;19.90;72.70
71563;DHT22;59391;52.504;13.438;2023-08-06T07:22:54;19.90;72.40
71563;DHT22;59391;52.504;13.438;2023-08-06T07:25:20;20.00;72.50
71563;DHT22;59391;52.504;13.438;2023-08-06T07:27:45;20.00;72.50
71563;DHT22;59391;52.504;13.438;2023-08-06T07:30:11;20.00;72.30
71563;DHT22;59391;52.504;13.438;2023-08-06T07:32:37;20.10;72.40
71563;DHT22;59391;52.504;13.438;2023-08-06T07:35:02;20.10;72.10
71563;DHT22;59391;52.504;13.438;2023-08-06T07:37:28;20.10;71.80
71563;DHT22;59391;52.504;13.438;2023-08-06T07:39:55;20.20;71.90
71563;DHT22;59391;52.504;13.438;2023-08-06T07:42:21;20.20;71.40
71563;DHT22;59391;52.504;13.438;2023-08-06T07:44:54;20.20;71.40
71563;DHT22;59391;52.504;13.438;2023-08-06T07:47:21;20.20;71.40
71563;DHT22;59391;52.504;13.438;2023-08-06T07:49:47;20.30;70.90
71563;DHT22;59391;52.504;13.438;2023-08-06T07:52:15;20.30;71.10
71563;DHT22;59391;52.504;13.438;2023-08-06T07:54:41;20.30;71.20
71563;DHT22;59391;52.504;13.438;2023-08-06T07:57:07;20.30;71.20
71563;DHT22;59391;52.504;13.438;2023-08-06T07:59:32;20.30;71.10
71563;DHT22;59391;52.504;13.438;2023-08-06T08:01:58;20.30;70.90
71563;DHT22;59391;52.504;13.438;2023-08-06T08:04:24;20.30;70.90
71563;DHT22;59391;52.504;13.438;2023-08-06T08:06:49;20.30;70.90
71563;DHT22;59391;52.504;13.438;2023-08-06T08:09:15;20.30;71.10
71563;DHT22;59391;52.504;13.438;2023-08-06T08:11:41;20.30;71.20
71563;DHT22;59391;52.504;13.438;2023-08-06T08:14:07;20.30;71.10
71563;DHT22;59391;52.504;13.438;2023-08-06T08:16:33;20.30;71.00
71563;DHT22;59391;52.504;13.438;2023-08-06T08:18:58;20.30;71.10
71563;DHT22;59391;52.504;13.438;2023-08-06T08:21:24;20.30;70.90
71563;DHT22;59391;52.504;13.438;2023-08-06T08:23:50;20.30;71.00
71563;DHT22;59391;52.504;13.438;2023-08-06T08:26:16;20.20;71.00
71563;DHT22;59391;52.504;13.438;2023-08-06T08:28:42;20.20;70.80
71563;DHT22;59391;52.504;13.438;2023-08-06T08:31:11;20.20;70.90
71563;DHT22;59391;52.504;13.438;2023-08-06T08:33:38;20.20;71.20
71563;DHT22;59391;52.504;13.438;2023-08-06T08:36:03;20.20;71.20
71563;DHT22;59391;52.504;13.438;2023-08-06T08:38:29;20.20;71.60
71563;DHT22;59391;52.504;13.438;2023-08-06T08:40:55;20.20;71.90
71563;DHT22;59391;52.504;13.438;2023-08-06T08:43:21;20.20;71.50
71563;DHT22;59391;52.504;13.438;2023-08-06T08:45:50;20.20;71.70
71563;DHT22;59391;52.504;13.438;2023-08-06T08:48:18;20.20;71.70
71563;DHT22;59391;52.504;13.438;2023-08-06T08:50:48;20.20;71.90
71563;DHT22;59391;52.504;13.438;2023-08-06T08:53:16;20.30;71.70
71563;DHT22;59391;52.504;13.438;2023-08-06T08:55:43;20.30;72.00
71563;DHT22;59391;52.504;13.438;2023-08-06T08:58:11;20.30;72.10
71563;DHT22;59391;52.504;13.438;2023-08-06T09:00:39;20.40;71.90
71563;DHT22;59391;52.504;13.438;2023-08-06T09:03:07;20.40;71.70
71563;DHT22;59391;52.504;13.438;2023-08-06T09:05:34;20.50;71.50
71563;DHT22;59391;52.504;13.438;2023-08-06T09:08:03;20.50;71.40
71563;DHT22;59391;52.504;13.438;2023-08-06T09:10:29;20.50;71.60
71563;DHT22;59391;52.504;13.438;2023-08-06T09:12:57;20.60;71.30
71563;DHT22;59391;52.504;13.438;2023-08-06T09:15:24;20.60;71.60
71563;DHT22;59391;52.504;13.438;2023-08-06T09:17:52;20.60;71.50
71563;DHT22;59391;52.504;13.438;2023-08-06T09:20:18;20.70;71.30
71563;DHT22;59391;52.504;13.438;2023-08-06T09:22:44;20.70;71.00
71563;DHT22;59391;52.504;13.438;2023-08-06T09:25:11;20.70;70.30
71563;DHT22;59391;52.504;13.438;2023-08-06T09:27:39;20.70;70.50
71563;DHT22;59391;52.504;13.438;2023-08-06T09:30:06;20.70;70.50
71563;DHT22;59391;52.504;13.438;2023-08-06T09:32:48;20.80;70.70
71563;DHT22;59391;52.504;13.438;2023-08-06T09:35:17;20.80;70.60
71563;DHT22;59391;52.504;13.438;2023-08-06T09:37:43;20.80;70.50
71563;DHT22;59391;52.504;13.438;2023-08-06T09:40:28;20.80;70.40
71563;DHT22;59391;52.504;13.438;2023-08-06T09:42:56;20.90;70.50
71563;DHT22;59391;52.504;13.438;2023-08-06T09:45:23;20.90;70.20
71563;DHT22;59391;52.504;13.438;2023-08-06T09:47:59;20.90;70.60
71563;DHT22;59391;52.504;13.438;2023-08-06T09:50:30;20.90;70.50
71563;DHT22;59391;52.504;13.438;2023-08-06T09:52:58;20.90;69.80
71563;DHT22;59391;52.504;13.438;2023-08-06T09:55:24;20.90;69.80
71563;DHT22;59391;52.504;13.438;2023-08-06T09:57:52;20.90;69.50
71563;DHT22;59391;52.504;13.438;2023-08-06T10:00:19;20.90;69.70
71563;DHT22;59391;52.504;13.438;2023-08-06T10:02:45;20.90;69.30
71563;DHT22;59391;52.504;13.438;2023-08-06T10:05:12;20.90;69.30
71563;DHT22;59391;52.504;13.438;2023-08-06T10:07:43;20.90;69.40
71563;DHT22;59391;52.504;13.438;2023-08-06T10:10:09;20.90;69.80
71563;DHT22;59391;52.504;13.438;2023-08-06T10:12:41;20.90;69.50
71563;DHT22;59391;52.504;13.438;2023-08-06T10:15:13;20.90;69.10
71563;DHT22;59391;52.504;13.438;2023-08-06T10:17:41;20.90;68.70
71563;DHT22;59391;52.504;13.438;2023-08-06T10:20:09;20.90;68.70
71563;DHT22;59391;52.504;13.438;2023-08-06T10:22:35;20.90;67.90
71563;DHT22;59391;52.504;13.438;2023-08-06T10:25:02;20.90;68.10
71563;DHT22;59391;52.504;13.438;2023-08-06T10:30:30;20.90;68.20
71563;DHT22;59391;52.504;13.438;2023-08-06T10:33:02;20.90;68.40
71563;DHT22;59391;52.504;13.438;2023-08-06T10:35:36;20.90;67.80
71563;DHT22;59391;52.504;13.438;2023-08-06T10:38:20;20.90;66.80
71563;DHT22;59391;52.504;13.438;2023-08-06T10:41:01;20.90;66.60
71563;DHT22;59391;52.504;13.438;2023-08-06T10:43:37;20.90;65.70
71563;DHT22;59391;52.504;13.438;2023-08-06T10:46:10;20.90;64.40
71563;DHT22;59391;52.504;13.438;2023-08-06T10:48:38;20.80;63.90
71563;DHT22;59391;52.504;13.438;2023-08-06T10:51:12;20.80;63.60
71563;DHT22;59391;52.504;13.438;2023-08-06T10:53:42;20.80;63.40
71563;DHT22;59391;52.504;13.438;2023-08-06T10:56:18;20.80;63.70
71563;DHT22;59391;52.504;13.438;2023-08-06T10:58:46;20.80;64.60
71563;DHT22;59391;52.504;13.438;2023-08-06T11:01:12;20.80;64.90
71563;DHT22;59391;52.504;13.438;2023-08-06T11:03:38;20.80;64.60
71563;DHT22;59391;52.504;13.438;2023-08-06T11:06:07;20.80;63.90
71563;DHT22;59391;52.504;13.438;2023-08-06T11:08:37;20.80;63.90
71563;DHT22;59391;52.504;13.438;2023-08-06T11:11:14;20.80;64.00
71563;DHT22;59391;52.504;13.438;2023-08-06T11:13:41;20.80;63.60
71563;DHT22;59391;52.504;13.438;2023-08-06T11:16:08;20.80;64.10
71563;DHT22;59391;52.504;13.438;2023-08-06T11:18:35;20.80;64.40
71563;DHT22;59391;52.504;13.438;2023-08-06T11:21:01;20.80;64.50
71563;DHT22;59391;52.504;13.438;2023-08-06T11:23:28;20.80;64.70
71563;DHT22;59391;52.504;13.438;2023-08-06T11:25:57;20.90;65.00
71563;DHT22;59391;52.504;13.438;2023-08-06T11:28:24;20.90;65.30
71563;DHT22;59391;52.504;13.438;2023-08-06T11:30:51;20.90;65.40
71563;DHT22;59391;52.504;13.438;2023-08-06T11:33:21;20.90;65.30
71563;DHT22;59391;52.504;13.438;2023-08-06T11:35:48;21.00;65.00
71563;DHT22;59391;52.504;13.438;2023-08-06T11:38:14;21.00;65.00
71563;DHT22;59391;52.504;13.438;2023-08-06T11:40:46;21.00;64.40
71563;DHT22;59391;52.504;13.438;2023-08-06T11:43:13;21.00;64.60
71563;DHT22;59391;52.504;13.438;2023-08-06T11:45:40;21.00;64.80
71563;DHT22;59391;52.504;13.438;2023-08-06T11:48:07;21.00;65.20
71563;DHT22;59391;52.504;13.438;2023-08-06T11:50:37;21.00;65.30
71563;DHT22;59391;52.504;13.438;2023-08-06T11:53:06;21.00;65.60
71563;DHT22;59391;52.504;13.438;2023-08-06T11:55:32;21.10;65.60
71563;DHT22;59391;52.504;13.438;2023-08-06T11:57:59;21.10;66.00
71563;DHT22;59391;52.504;13.438;2023-08-06T12:00:29;21.10;65.80
71563;DHT22;59391;52.504;13.438;2023-08-06T12:02:56;21.10;65.70
71563;DHT22;59391;52.504;13.438;2023-08-06T12:05:32;21.10;65.90
71563;DHT22;59391;52.504;13.438;2023-08-06T12:08:03;21.20;66.10
71563;DHT22;59391;52.504;13.438;2023-08-06T12:10:31;21.20;65.80
71563;DHT22;59391;52.504;13.438;2023-08-06T12:12:57;21.20;65.90
71563;DHT22;59391;52.504;13.438;2023-08-06T12:15:23;21.20;65.90
71563;DHT22;59391;52.504;13.438;2023-08-06T12:17:49;21.20;66.00
71563;DHT22;59391;52.504;13.438;2023-08-06T12:20:15;21.20;65.90
71563;DHT22;59391;52.504;13.438;2023-08-06T12:22:41;21.20;66.20
71563;DHT22;59391;52.504;13.438;2023-08-06T12:25:09;21.20;66.50
71563;DHT22;59391;52.504;13.438;2023-08-06T12:27:44;21.20;66.40
71563;DHT22;59391;52.504;13.438;2023-08-06T12:30:11;21.20;66.30
71563;DHT22;59391;52.504;13.438;2023-08-06T12:32:38;21.20;66.60
71563;DHT22;59391;52.504;13.438;2023-08-06T12:35:04;21.20;66.50
71563;DHT22;59391;52.504;13.438;2023-08-06T12:37:30;21.30;66.80
71563;DHT22;59391;52.504;13.438;2023-08-06T12:39:56;21.30;66.60
71563;DHT22;59391;52.504;13.438;2023-08-06T12:42:21;21.30;67.30
71563;DHT22;59391;52.504;13.438;2023-08-06T12:44:50;21.30;66.90
71563;DHT22;59391;52.504;13.438;2023-08-06T12:47:16;21.20;67.30
71563;DHT22;59391;52.504;13.438;2023-08-06T12:49:42;21.20;67.10
71563;DHT22;59391;52.504;13.438;2023-08-06T12:52:08;21.20;67.50
71563;DHT22;59391;52.504;13.438;2023-08-06T12:54:34;21.20;67.70
71563;DHT22;59391;52.504;13.438;2023-08-06T12:57:02;21.10;67.90
71563;DHT22;59391;52.504;13.438;2023-08-06T12:59:29;21.10;68.40
71563;DHT22;59391;52.504;13.438;2023-08-06T13:01:54;21.10;68.60
71563;DHT22;59391;52.504;13.438;2023-08-06T13:04:20;21.00;69.10
71563;DHT22;59391;52.504;13.438;2023-08-06T13:06:46;21.00;69.30
71563;DHT22;59391;52.504;13.438;2023-08-06T13:09:12;21.00;69.80
71563;DHT22;59391;52.504;13.438;2023-08-06T13:11:39;21.00;69.80
71563;DHT22;59391;52.504;13.438;2023-08-06T13:14:07;21.00;70.30
71563;DHT22;59391;52.504;13.438;2023-08-06T13:16:35;21.00;70.40
71563;DHT22;59391;52.504;13.438;2023-08-06T13:19:02;20.90;70.20
71563;DHT22;59391;52.504;13.438;2023-08-06T13:21:35;21.00;70.10
71563;DHT22;59391;52.504;13.438;2023-08-06T13:24:24;21.00;70.10
71563;DHT22;59391;52.504;13.438;2023-08-06T13:26:50;21.00;70.10
71563;DHT22;59391;52.504;13.438;2023-08-06T13:29:15;21.00;70.30
71563;DHT22;59391;52.504;13.438;2023-08-06T13:31:41;21.00;70.40
71563;DHT22;59391;52.504;13.438;2023-08-06T13:34:07;21.00;70.50
71563;DHT22;59391;52.504;13.438;2023-08-06T13:36:32;21.00;70.50
71563;DHT22;59391;52.504;13.438;2023-08-06T13:38:58;21.00;70.30
71563;DHT22;59391;52.504;13.438;2023-08-06T13:41:23;21.00;70.40
71563;DHT22;59391;52.504;13.438;2023-08-06T13:43:49;21.00;70.60
71563;DHT22;59391;52.504;13.438;2023-08-06T13:46:15;21.00;70.80
71563;DHT22;59391;52.504;13.438;2023-08-06T13:48:46;21.00;70.30
71563;DHT22;59391;52.504;13.438;2023-08-06T13:51:13;21.00;70.40
71563;DHT22;59391;52.504;13.438;2023-08-06T13:53:42;21.00;70.40
71563;DHT22;59391;52.504;13.438;2023-08-06T13:56:09;21.00;70.40
71563;DHT22;59391;52.504;13.438;2023-08-06T13:58:36;20.90;70.30
71563;DHT22;59391;52.504;13.438;2023-08-06T14:01:02;20.90;70.50
71563;DHT22;59391;52.504;13.438;2023-08-06T14:03:28;20.90;70.70
71563;DHT22;59391;52.504;13.438;2023-08-06T14:05:54;20.90;70.70
71563;DHT22;59391;52.504;13.438;2023-08-06T14:08:26;20.90;71.00
71563;DHT22;59391;52.504;13.438;2023-08-06T14:10:52;20.90;71.00
71563;DHT22;59391;52.504;13.438;2023-08-06T14:13:17;20.90;71.10
71563;DHT22;59391;52.504;13.438;2023-08-06T14:15:43;21.00;71.40
71563;DHT22;59391;52.504;13.438;2023-08-06T14:18:15;20.90;70.80
71563;DHT22;59391;52.504;13.438;2023-08-06T14:20:42;20.90;69.40
71563;DHT22;59391;52.504;13.438;2023-08-06T14:23:08;20.90;69.20
71563;DHT22;59391;52.504;13.438;2023-08-06T14:25:34;20.90;68.90
71563;DHT22;59391;52.504;13.438;2023-08-06T14:27:59;20.90;68.60
71563;DHT22;59391;52.504;13.438;2023-08-06T14:30:25;20.90;68.00
71563;DHT22;59391;52.504;13.438;2023-08-06T14:32:50;20.90;67.80
71563;DHT22;59391;52.504;13.438;2023-08-06T14:35:16;20.90;67.40
71563;DHT22;59391;52.504;13.438;2023-08-06T14:37:42;20.90;67.60
71563;DHT22;59391;52.504;13.438;2023-08-06T14:40:08;20.90;67.60
71563;DHT22;59391;52.504;13.438;2023-08-06T14:42:34;20.80;67.40
71563;DHT22;59391;52.504;13.438;2023-08-06T14:44:59;20.80;67.80
71563;DHT22;59391;52.504;13.438;2023-08-06T14:47:25;20.80;67.90
71563;DHT22;59391;52.504;13.438;2023-08-06T14:49:51;20.70;68.00
71563;DHT22;59391;52.504;13.438;2023-08-06T14:52:16;20.70;68.50
71563;DHT22;59391;52.504;13.438;2023-08-06T14:54:42;20.70;69.30
71563;DHT22;59391;52.504;13.438;2023-08-06T14:57:09;20.70;69.30
71563;DHT22;59391;52.504;13.438;2023-08-06T14:59:35;20.60;69.20
71563;DHT22;59391;52.504;13.438;2023-08-06T15:02:01;20.60;69.20
71563;DHT22;59391;52.504;13.438;2023-08-06T15:04:26;20.60;69.50
71563;DHT22;59391;52.504;13.438;2023-08-06T15:06:52;20.60;69.30
71563;DHT22;59391;52.504;13.438;2023-08-06T15:09:17;20.60;69.50
71563;DHT22;59391;52.504;13.438;2023-08-06T15:11:43;20.60;69.80
71563;DHT22;59391;52.504;13.438;2023-08-06T15:14:09;20.50;70.00
71563;DHT22;59391;52.504;13.438;2023-08-06T15:16:34;20.60;70.30
71563;DHT22;59391;52.504;13.438;2023-08-06T15:19:00;20.60;70.00
71563;DHT22;59391;52.504;13.438;2023-08-06T15:21:27;20.60;68.00